sensor_id;sensor_type;location;lat;lon;timestamp;P1;durP1;ratioP1;P2;durP2;ratioP2
53875;SDS011;39789;53.216;5.624;2023-04-07T00:01:19;51.17;;;34.15;;
53875;SDS011;39789;53.216;5.624;2023-04-07T00:03:45;58.95;;;35.10;;
53875;SDS011;39789;53.216;5.624;2023-04-07T00:06:11;56.33;;;34.67;;
53875;SDS011;39789;53.216;5.624;2023-04-07T00:08:37;64.63;;;36.45;;
53875;SDS011;39789;53.216;5.624;2023-04-07T00:11:03;59.85;;;36.25;;
53875;SDS011;39789;53.216;5.624;2023-04-07T00:13:28;57.65;;;35.80;;
53875;SDS011;39789;53.216;5.624;2023-04-07T00:15:54;61.63;;;34.03;;
53875;SDS011;39789;53.216;5.624;2023-04-07T00:18:20;57.70;;;35.70;;
53875;SDS011;39789;53.216;5.624;2023-04-07T00:20:45;61.63;;;34.65;;
53875;SDS011;39789;53.216;5.624;2023-04-07T00:23:11;55.17;;;33.63;;
53875;SDS011;39789;53.216;5.624;2023-04-07T00:25:36;55.60;;;32.70;;
53875;SDS011;39789;53.216;5.624;2023-04-07T00:28:02;51.08;;;30.95;;
53875;SDS011;39789;53.216;5.624;2023-04-07T00:30:27;49.88;;;30.67;;
53875;SDS011;39789;53.216;5.624;2023-04-07T00:32:53;52.05;;;32.13;;
53875;SDS011;39789;53.216;5.624;2023-04-07T00:35:18;53.45;;;32.30;;
53875;SDS011;39789;53.216;5.624;2023-04-07T00:37:44;54.70;;;31.83;;
53875;SDS011;39789;53.216;5.624;2023-04-07T00:40:10;53.80;;;31.52;;
53875;SDS011;39789;53.216;5.624;2023-04-07T00:42:35;57.55;;;31.35;;
53875;SDS011;39789;53.216;5.624;2023-04-07T00:45:01;55.53;;;31.40;;
53875;SDS011;39789;53.216;5.624;2023-04-07T00:47:27;56.40;;;31.42;;
53875;SDS011;39789;53.216;5.624;2023-04-07T00:49:52;58.70;;;30.95;;
53875;SDS011;39789;53.216;5.624;2023-04-07T00:52:18;55.83;;;31.05;;
53875;SDS011;39789;53.216;5.624;2023-04-07T00:54:51;61.40;;;33.08;;
53875;SDS011;39789;53.216;5.624;2023-04-07T00:57:18;70.28;;;34.72;;
53875;SDS011;39789;53.216;5.624;2023-04-07T00:59:44;64.03;;;31.60;;
53875;SDS011;39789;53.216;5.624;2023-04-07T01:02:11;61.33;;;32.15;;
53875;SDS011;39789;53.216;5.624;2023-04-07T01:05:04;50.97;;;30.88;;
53875;SDS011;39789;53.216;5.624;2023-04-07T01:07:33;52.65;;;29.63;;
53875;SDS011;39789;53.216;5.624;2023-04-07T01:10:07;56.70;;;29.88;;
53875;SDS011;39789;53.216;5.624;2023-04-07T01:12:51;46.35;;;24.77;;
53875;SDS011;39789;53.216;5.624;2023-04-07T01:15:22;45.45;;;25.23;;
53875;SDS011;39789;53.216;5.624;2023-04-07T01:17:53;46.67;;;25.85;;
53875;SDS011;39789;53.216;5.624;2023-04-07T01:20:23;48.10;;;25.17;;
53875;SDS011;39789;53.216;5.624;2023-04-07T01:22:55;48.58;;;24.92;;
53875;SDS011;39789;53.216;5.624;2023-04-07T01:30:32;24.15;;;14.75;;
53875;SDS011;39789;53.216;5.624;2023-04-07T01:33:01;19.40;;;12.48;;
53875;SDS011;39789;53.216;5.624;2023-04-07T01:35:31;22.88;;;13.05;;
53875;SDS011;39789;53.216;5.624;2023-04-07T01:37:59;22.67;;;12.40;;
53875;SDS011;39789;53.216;5.624;2023-04-07T01:40:25;19.95;;;11.60;;
53875;SDS011;39789;53.216;5.624;2023-04-07T01:42:51;20.17;;;10.63;;
53875;SDS011;39789;53.216;5.624;2023-04-07T01:45:18;18.85;;;10.60;;
53875;SDS011;39789;53.216;5.624;2023-04-07T01:47:45;16.27;;;10.32;;
53875;SDS011;39789;53.216;5.624;2023-04-07T01:50:11;18.13;;;10.40;;
53875;SDS011;39789;53.216;5.624;2023-04-07T01:52:37;17.50;;;9.85;;
53875;SDS011;39789;53.216;5.624;2023-04-07T01:55:04;19.80;;;10.80;;
53875;SDS011;39789;53.216;5.624;2023-04-07T01:57:31;14.48;;;9.50;;
53875;SDS011;39789;53.216;5.624;2023-04-07T01:59:57;18.42;;;9.80;;
53875;SDS011;39789;53.216;5.624;2023-04-07T02:02:23;13.18;;;8.63;;
53875;SDS011;39789;53.216;5.624;2023-04-07T02:07:21;14.35;;;8.93;;
53875;SDS011;39789;53.216;5.624;2023-04-07T02:09:50;16.13;;;10.20;;
53875;SDS011;39789;53.216;5.624;2023-04-07T02:12:21;14.20;;;9.60;;
53875;SDS011;39789;53.216;5.624;2023-04-07T02:14:50;16.17;;;10.25;;
53875;SDS011;39789;53.216;5.624;2023-04-07T02:17:16;17.75;;;9.77;;
53875;SDS011;39789;53.216;5.624;2023-04-07T02:19:42;20.27;;;10.18;;
53875;SDS011;39789;53.216;5.624;2023-04-07T02:22:10;16.27;;;9.85;;
53875;SDS011;39789;53.216;5.624;2023-04-07T02:24:36;16.33;;;10.50;;
53875;SDS011;39789;53.216;5.624;2023-04-07T02:27:04;18.08;;;11.20;;
53875;SDS011;39789;53.216;5.624;2023-04-07T02:29:30;26.88;;;12.35;;
53875;SDS011;39789;53.216;5.624;2023-04-07T02:31:56;22.10;;;12.05;;
53875;SDS011;39789;53.216;5.624;2023-04-07T02:34:21;25.88;;;13.10;;
53875;SDS011;39789;53.216;5.624;2023-04-07T02:36:47;22.95;;;12.70;;
53875;SDS011;39789;53.216;5.624;2023-04-07T02:39:12;28.15;;;14.02;;
53875;SDS011;39789;53.216;5.624;2023-04-07T02:41:38;28.42;;;14.13;;
53875;SDS011;39789;53.216;5.624;2023-04-07T02:44:03;24.95;;;13.32;;
53875;SDS011;39789;53.216;5.624;2023-04-07T02:46:29;22.58;;;12.35;;
53875;SDS011;39789;53.216;5.624;2023-04-07T02:48:54;24.00;;;13.13;;
53875;SDS011;39789;53.216;5.624;2023-04-07T02:51:20;26.85;;;12.77;;
53875;SDS011;39789;53.216;5.624;2023-04-07T02:53:45;28.85;;;13.00;;
53875;SDS011;39789;53.216;5.624;2023-04-07T02:56:11;31.85;;;14.75;;
53875;SDS011;39789;53.216;5.624;2023-04-07T02:58:37;33.47;;;14.30;;
53875;SDS011;39789;53.216;5.624;2023-04-07T03:01:02;40.78;;;15.02;;
53875;SDS011;39789;53.216;5.624;2023-04-07T03:03:28;44.35;;;16.42;;
53875;SDS011;39789;53.216;5.624;2023-04-07T03:05:54;29.00;;;14.45;;
53875;SDS011;39789;53.216;5.624;2023-04-07T03:08:20;46.58;;;15.52;;
53875;SDS011;39789;53.216;5.624;2023-04-07T03:10:45;47.38;;;16.63;;
53875;SDS011;39789;53.216;5.624;2023-04-07T03:13:11;58.90;;;16.38;;
53875;SDS011;39789;53.216;5.624;2023-04-07T03:15:40;59.60;;;17.73;;
53875;SDS011;39789;53.216;5.624;2023-04-07T03:18:06;102.07;;;19.25;;
53875;SDS011;39789;53.216;5.624;2023-04-07T03:20:31;97.10;;;19.55;;
53875;SDS011;39789;53.216;5.624;2023-04-07T03:22:57;87.53;;;17.55;;
53875;SDS011;39789;53.216;5.624;2023-04-07T03:25:22;90.03;;;18.40;;
53875;SDS011;39789;53.216;5.624;2023-04-07T03:27:49;85.20;;;20.30;;
53875;SDS011;39789;53.216;5.624;2023-04-07T03:30:15;118.50;;;20.42;;
53875;SDS011;39789;53.216;5.624;2023-04-07T03:32:40;109.80;;;19.83;;
53875;SDS011;39789;53.216;5.624;2023-04-07T03:35:06;147.13;;;22.05;;
53875;SDS011;39789;53.216;5.624;2023-04-07T03:37:32;107.45;;;19.35;;
53875;SDS011;39789;53.216;5.624;2023-04-07T03:39:57;125.75;;;21.33;;
53875;SDS011;39789;53.216;5.624;2023-04-07T03:42:23;173.63;;;23.55;;
53875;SDS011;39789;53.216;5.624;2023-04-07T03:44:48;126.63;;;19.27;;
53875;SDS011;39789;53.216;5.624;2023-04-07T03:47:14;141.82;;;21.48;;
53875;SDS011;39789;53.216;5.624;2023-04-07T03:49:40;148.80;;;24.00;;
53875;SDS011;39789;53.216;5.624;2023-04-07T03:52:05;151.98;;;21.90;;
53875;SDS011;39789;53.216;5.624;2023-04-07T03:54:31;146.73;;;21.77;;
53875;SDS011;39789;53.216;5.624;2023-04-07T03:56:59;158.23;;;22.20;;
53875;SDS011;39789;53.216;5.624;2023-04-07T03:59:26;132.50;;;20.40;;
53875;SDS011;39789;53.216;5.624;2023-04-07T04:01:52;164.52;;;22.17;;
53875;SDS011;39789;53.216;5.624;2023-04-07T04:04:17;176.52;;;21.88;;
53875;SDS011;39789;53.216;5.624;2023-04-07T04:06:43;155.95;;;21.98;;
53875;SDS011;39789;53.216;5.624;2023-04-07T04:09:08;139.95;;;23.00;;
53875;SDS011;39789;53.216;5.624;2023-04-07T04:11:34;176.38;;;21.10;;
53875;SDS011;39789;53.216;5.624;2023-04-07T04:14:00;173.40;;;22.50;;
53875;SDS011;39789;53.216;5.624;2023-04-07T04:16:26;190.45;;;23.55;;
53875;SDS011;39789;53.216;5.624;2023-04-07T04:18:52;191.77;;;24.40;;
53875;SDS011;39789;53.216;5.624;2023-04-07T04:21:18;183.60;;;25.70;;
53875;SDS011;39789;53.216;5.624;2023-04-07T04:23:43;254.55;;;27.85;;
53875;SDS011;39789;53.216;5.624;2023-04-07T04:26:09;292.75;;;29.15;;
53875;SDS011;39789;53.216;5.624;2023-04-07T04:28:35;240.02;;;28.10;;
53875;SDS011;39789;53.216;5.624;2023-04-07T04:31:00;247.38;;;28.23;;
53875;SDS011;39789;53.216;5.624;2023-04-07T04:33:26;253.15;;;27.40;;
53875;SDS011;39789;53.216;5.624;2023-04-07T04:35:52;228.93;;;27.13;;
53875;SDS011;39789;53.216;5.624;2023-04-07T04:38:17;205.98;;;26.98;;
53875;SDS011;39789;53.216;5.624;2023-04-07T04:40:43;195.85;;;23.17;;
53875;SDS011;39789;53.216;5.624;2023-04-07T04:43:09;143.45;;;21.98;;
53875;SDS011;39789;53.216;5.624;2023-04-07T04:45:35;124.25;;;21.90;;
53875;SDS011;39789;53.216;5.624;2023-04-07T04:48:01;103.68;;;20.35;;
53875;SDS011;39789;53.216;5.624;2023-04-07T04:50:26;89.53;;;19.67;;
53875;SDS011;39789;53.216;5.624;2023-04-07T04:52:52;81.03;;;18.88;;
53875;SDS011;39789;53.216;5.624;2023-04-07T04:55:17;86.22;;;18.48;;
53875;SDS011;39789;53.216;5.624;2023-04-07T04:57:43;90.15;;;20.25;;
53875;SDS011;39789;53.216;5.624;2023-04-07T05:00:09;90.22;;;19.83;;
53875;SDS011;39789;53.216;5.624;2023-04-07T05:02:35;91.45;;;20.50;;
53875;SDS011;39789;53.216;5.624;2023-04-07T05:05:01;81.18;;;19.83;;
53875;SDS011;39789;53.216;5.624;2023-04-07T05:07:26;84.45;;;19.35;;
53875;SDS011;39789;53.216;5.624;2023-04-07T05:09:52;79.43;;;19.42;;
53875;SDS011;39789;53.216;5.624;2023-04-07T05:12:17;84.85;;;19.88;;
53875;SDS011;39789;53.216;5.624;2023-04-07T05:14:43;73.15;;;19.35;;
53875;SDS011;39789;53.216;5.624;2023-04-07T05:17:09;75.53;;;21.35;;
53875;SDS011;39789;53.216;5.624;2023-04-07T05:19:34;54.92;;;22.58;;
53875;SDS011;39789;53.216;5.624;2023-04-07T05:22:00;53.22;;;22.80;;
53875;SDS011;39789;53.216;5.624;2023-04-07T05:24:27;58.20;;;24.10;;
53875;SDS011;39789;53.216;5.624;2023-04-07T05:26:53;59.85;;;24.50;;
53875;SDS011;39789;53.216;5.624;2023-04-07T05:29:18;52.30;;;24.25;;
53875;SDS011;39789;53.216;5.624;2023-04-07T05:31:44;61.60;;;25.23;;
53875;SDS011;39789;53.216;5.624;2023-04-07T05:34:10;61.40;;;25.77;;
53875;SDS011;39789;53.216;5.624;2023-04-07T05:36:35;73.97;;;28.05;;
53875;SDS011;39789;53.216;5.624;2023-04-07T05:39:01;58.88;;;25.90;;
53875;SDS011;39789;53.216;5.624;2023-04-07T05:41:26;64.75;;;25.70;;
53875;SDS011;39789;53.216;5.624;2023-04-07T05:43:52;60.30;;;27.10;;
53875;SDS011;39789;53.216;5.624;2023-04-07T05:46:17;63.45;;;24.40;;
53875;SDS011;39789;53.216;5.624;2023-04-07T05:48:43;55.35;;;25.83;;
53875;SDS011;39789;53.216;5.624;2023-04-07T05:51:09;52.85;;;25.63;;
53875;SDS011;39789;53.216;5.624;2023-04-07T05:53:34;46.65;;;26.00;;
53875;SDS011;39789;53.216;5.624;2023-04-07T05:56:00;52.83;;;26.48;;
53875;SDS011;39789;53.216;5.624;2023-04-07T05:58:26;56.97;;;28.88;;
53875;SDS011;39789;53.216;5.624;2023-04-07T06:00:52;56.28;;;27.92;;
53875;SDS011;39789;53.216;5.624;2023-04-07T06:03:17;60.15;;;29.50;;
53875;SDS011;39789;53.216;5.624;2023-04-07T06:05:46;61.25;;;30.00;;
53875;SDS011;39789;53.216;5.624;2023-04-07T06:08:12;45.45;;;26.65;;
53875;SDS011;39789;53.216;5.624;2023-04-07T06:10:38;50.25;;;26.30;;
53875;SDS011;39789;53.216;5.624;2023-04-07T06:13:05;50.60;;;25.33;;
53875;SDS011;39789;53.216;5.624;2023-04-07T06:15:31;53.33;;;28.27;;
53875;SDS011;39789;53.216;5.624;2023-04-07T06:17:57;52.75;;;27.63;;
53875;SDS011;39789;53.216;5.624;2023-04-07T06:20:23;48.05;;;26.90;;
53875;SDS011;39789;53.216;5.624;2023-04-07T06:22:48;54.70;;;27.70;;
53875;SDS011;39789;53.216;5.624;2023-04-07T06:25:14;54.42;;;29.63;;
53875;SDS011;39789;53.216;5.624;2023-04-07T06:27:40;54.03;;;27.63;;
53875;SDS011;39789;53.216;5.624;2023-04-07T06:30:05;51.20;;;27.73;;
53875;SDS011;39789;53.216;5.624;2023-04-07T06:32:32;49.90;;;27.55;;
53875;SDS011;39789;53.216;5.624;2023-04-07T06:34:57;50.35;;;28.75;;
53875;SDS011;39789;53.216;5.624;2023-04-07T06:37:23;61.38;;;30.25;;
53875;SDS011;39789;53.216;5.624;2023-04-07T06:39:50;53.25;;;28.20;;
53875;SDS011;39789;53.216;5.624;2023-04-07T06:42:16;49.35;;;27.45;;
53875;SDS011;39789;53.216;5.624;2023-04-07T06:44:42;51.15;;;26.85;;
53875;SDS011;39789;53.216;5.624;2023-04-07T06:47:07;49.20;;;25.58;;
53875;SDS011;39789;53.216;5.624;2023-04-07T06:49:33;55.13;;;28.77;;
53875;SDS011;39789;53.216;5.624;2023-04-07T06:51:59;43.35;;;25.42;;
53875;SDS011;39789;53.216;5.624;2023-04-07T06:54:25;46.45;;;26.92;;
53875;SDS011;39789;53.216;5.624;2023-04-07T06:56:50;43.72;;;25.67;;
53875;SDS011;39789;53.216;5.624;2023-04-07T06:59:16;43.33;;;25.45;;
53875;SDS011;39789;53.216;5.624;2023-04-07T07:01:41;38.10;;;23.15;;
53875;SDS011;39789;53.216;5.624;2023-04-07T07:04:08;34.88;;;21.83;;
53875;SDS011;39789;53.216;5.624;2023-04-07T07:06:34;39.35;;;22.92;;
53875;SDS011;39789;53.216;5.624;2023-04-07T07:09:00;42.08;;;21.83;;
53875;SDS011;39789;53.216;5.624;2023-04-07T07:11:27;39.50;;;22.67;;
53875;SDS011;39789;53.216;5.624;2023-04-07T07:13:53;38.60;;;22.38;;
53875;SDS011;39789;53.216;5.624;2023-04-07T07:16:19;32.33;;;18.92;;
53875;SDS011;39789;53.216;5.624;2023-04-07T07:18:48;37.33;;;20.55;;
53875;SDS011;39789;53.216;5.624;2023-04-07T07:21:14;34.63;;;19.65;;
53875;SDS011;39789;53.216;5.624;2023-04-07T07:23:41;32.83;;;20.52;;
53875;SDS011;39789;53.216;5.624;2023-04-07T07:26:06;37.42;;;20.75;;
53875;SDS011;39789;53.216;5.624;2023-04-07T07:28:32;39.30;;;22.48;;
53875;SDS011;39789;53.216;5.624;2023-04-07T07:30:58;37.45;;;20.98;;
53875;SDS011;39789;53.216;5.624;2023-04-07T07:33:23;37.50;;;20.75;;
53875;SDS011;39789;53.216;5.624;2023-04-07T07:35:49;34.47;;;20.58;;
53875;SDS011;39789;53.216;5.624;2023-04-07T07:38:14;38.75;;;22.40;;
53875;SDS011;39789;53.216;5.624;2023-04-07T07:40:40;32.33;;;20.17;;
53875;SDS011;39789;53.216;5.624;2023-04-07T07:43:05;30.27;;;18.23;;
53875;SDS011;39789;53.216;5.624;2023-04-07T07:45:31;28.50;;;18.77;;
53875;SDS011;39789;53.216;5.624;2023-04-07T07:47:56;28.67;;;18.50;;
53875;SDS011;39789;53.216;5.624;2023-04-07T07:50:22;32.67;;;18.67;;
53875;SDS011;39789;53.216;5.624;2023-04-07T07:52:49;25.02;;;16.27;;
53875;SDS011;39789;53.216;5.624;2023-04-07T07:55:14;29.33;;;19.27;;
53875;SDS011;39789;53.216;5.624;2023-04-07T07:57:40;25.42;;;18.40;;
53875;SDS011;39789;53.216;5.624;2023-04-07T08:00:06;28.80;;;19.10;;
53875;SDS011;39789;53.216;5.624;2023-04-07T08:02:32;28.58;;;19.10;;
53875;SDS011;39789;53.216;5.624;2023-04-07T08:04:58;29.23;;;20.05;;
53875;SDS011;39789;53.216;5.624;2023-04-07T08:07:24;29.13;;;18.67;;
53875;SDS011;39789;53.216;5.624;2023-04-07T08:10:01;31.75;;;19.40;;
53875;SDS011;39789;53.216;5.624;2023-04-07T08:12:27;27.40;;;19.23;;
53875;SDS011;39789;53.216;5.624;2023-04-07T08:14:52;29.33;;;18.40;;
53875;SDS011;39789;53.216;5.624;2023-04-07T08:17:19;24.75;;;17.85;;
53875;SDS011;39789;53.216;5.624;2023-04-07T08:19:45;26.30;;;17.60;;
53875;SDS011;39789;53.216;5.624;2023-04-07T08:22:10;26.73;;;18.60;;
53875;SDS011;39789;53.216;5.624;2023-04-07T08:24:36;24.33;;;17.70;;
53875;SDS011;39789;53.216;5.624;2023-04-07T08:27:01;23.13;;;16.35;;
53875;SDS011;39789;53.216;5.624;2023-04-07T08:29:27;26.05;;;17.48;;
53875;SDS011;39789;53.216;5.624;2023-04-07T08:31:52;23.40;;;16.55;;
53875;SDS011;39789;53.216;5.624;2023-04-07T08:34:18;24.92;;;17.65;;
53875;SDS011;39789;53.216;5.624;2023-04-07T08:36:45;25.85;;;18.40;;
53875;SDS011;39789;53.216;5.624;2023-04-07T08:39:10;24.08;;;15.75;;
53875;SDS011;39789;53.216;5.624;2023-04-07T08:41:38;26.63;;;17.77;;
53875;SDS011;39789;53.216;5.624;2023-04-07T08:44:06;24.02;;;17.23;;
53875;SDS011;39789;53.216;5.624;2023-04-07T08:46:32;22.35;;;16.63;;
53875;SDS011;39789;53.216;5.624;2023-04-07T08:48:58;22.92;;;16.42;;
53875;SDS011;39789;53.216;5.624;2023-04-07T08:51:29;23.85;;;16.20;;
53875;SDS011;39789;53.216;5.624;2023-04-07T08:54:09;21.05;;;15.55;;
53875;SDS011;39789;53.216;5.624;2023-04-07T08:56:39;20.10;;;15.30;;
53875;SDS011;39789;53.216;5.624;2023-04-07T08:59:10;22.92;;;16.35;;
53875;SDS011;39789;53.216;5.624;2023-04-07T09:01:38;19.88;;;13.73;;
53875;SDS011;39789;53.216;5.624;2023-04-07T09:04:05;19.55;;;14.00;;
53875;SDS011;39789;53.216;5.624;2023-04-07T09:06:33;20.60;;;14.95;;
53875;SDS011;39789;53.216;5.624;2023-04-07T09:09:00;19.63;;;15.10;;
53875;SDS011;39789;53.216;5.624;2023-04-07T09:11:27;19.58;;;14.73;;
53875;SDS011;39789;53.216;5.624;2023-04-07T09:13:53;19.55;;;13.90;;
53875;SDS011;39789;53.216;5.624;2023-04-07T09:16:23;17.58;;;14.10;;
53875;SDS011;39789;53.216;5.624;2023-04-07T09:18:49;15.60;;;13.02;;
53875;SDS011;39789;53.216;5.624;2023-04-07T09:21:17;18.00;;;13.73;;
53875;SDS011;39789;53.216;5.624;2023-04-07T09:23:43;19.92;;;14.18;;
53875;SDS011;39789;53.216;5.624;2023-04-07T09:26:27;17.58;;;14.13;;
53875;SDS011;39789;53.216;5.624;2023-04-07T09:31:42;19.42;;;14.27;;
53875;SDS011;39789;53.216;5.624;2023-04-07T09:34:24;20.27;;;14.63;;
53875;SDS011;39789;53.216;5.624;2023-04-07T09:36:51;18.15;;;13.30;;
53875;SDS011;39789;53.216;5.624;2023-04-07T09:39:17;17.98;;;14.48;;
53875;SDS011;39789;53.216;5.624;2023-04-07T09:41:43;17.98;;;14.27;;
53875;SDS011;39789;53.216;5.624;2023-04-07T09:44:09;17.60;;;13.30;;
53875;SDS011;39789;53.216;5.624;2023-04-07T09:46:35;17.75;;;14.07;;
53875;SDS011;39789;53.216;5.624;2023-04-07T09:49:12;15.73;;;13.55;;
53875;SDS011;39789;53.216;5.624;2023-04-07T09:51:38;15.68;;;12.75;;
53875;SDS011;39789;53.216;5.624;2023-04-07T09:54:33;15.10;;;13.13;;
53875;SDS011;39789;53.216;5.624;2023-04-07T09:57:01;18.88;;;14.63;;
53875;SDS011;39789;53.216;5.624;2023-04-07T09:59:32;19.48;;;15.00;;
53875;SDS011;39789;53.216;5.624;2023-04-07T10:01:59;19.35;;;14.93;;
53875;SDS011;39789;53.216;5.624;2023-04-07T10:04:29;19.65;;;15.65;;
53875;SDS011;39789;53.216;5.624;2023-04-07T10:06:56;19.88;;;15.95;;
53875;SDS011;39789;53.216;5.624;2023-04-07T10:09:23;17.52;;;14.70;;
53875;SDS011;39789;53.216;5.624;2023-04-07T10:11:52;17.83;;;14.85;;
53875;SDS011;39789;53.216;5.624;2023-04-07T10:14:20;19.02;;;15.80;;
53875;SDS011;39789;53.216;5.624;2023-04-07T10:16:48;20.67;;;16.92;;
53875;SDS011;39789;53.216;5.624;2023-04-07T10:19:16;20.33;;;15.65;;
53875;SDS011;39789;53.216;5.624;2023-04-07T10:21:44;21.40;;;16.92;;
53875;SDS011;39789;53.216;5.624;2023-04-07T10:27:08;19.50;;;15.75;;
53875;SDS011;39789;53.216;5.624;2023-04-07T10:29:37;24.67;;;17.90;;
53875;SDS011;39789;53.216;5.624;2023-04-07T10:32:08;17.00;;;14.15;;
53875;SDS011;39789;53.216;5.624;2023-04-07T10:37:18;18.95;;;14.30;;
53875;SDS011;39789;53.216;5.624;2023-04-07T10:39:48;16.58;;;13.30;;
53875;SDS011;39789;53.216;5.624;2023-04-07T10:45:07;14.50;;;12.40;;
53875;SDS011;39789;53.216;5.624;2023-04-07T10:47:34;15.68;;;13.00;;
53875;SDS011;39789;53.216;5.624;2023-04-07T10:50:20;14.23;;;11.25;;
53875;SDS011;39789;53.216;5.624;2023-04-07T10:53:33;14.63;;;12.15;;
53875;SDS011;39789;53.216;5.624;2023-04-07T10:55:38;13.80;;;11.32;;
53875;SDS011;39789;53.216;5.624;2023-04-07T11:03:32;15.18;;;12.00;;
53875;SDS011;39789;53.216;5.624;2023-04-07T11:06:09;15.18;;;11.75;;
53875;SDS011;39789;53.216;5.624;2023-04-07T11:08:37;15.18;;;11.75;;
53875;SDS011;39789;53.216;5.624;2023-04-07T11:11:05;12.98;;;10.90;;
53875;SDS011;39789;53.216;5.624;2023-04-07T11:13:40;13.10;;;11.38;;
53875;SDS011;39789;53.216;5.624;2023-04-07T11:16:07;13.00;;;10.52;;
53875;SDS011;39789;53.216;5.624;2023-04-07T11:18:33;11.98;;;10.35;;
53875;SDS011;39789;53.216;5.624;2023-04-07T11:21:10;13.23;;;10.75;;
53875;SDS011;39789;53.216;5.624;2023-04-07T11:23:40;10.77;;;9.65;;
53875;SDS011;39789;53.216;5.624;2023-04-07T11:26:07;12.80;;;10.77;;
53875;SDS011;39789;53.216;5.624;2023-04-07T11:28:35;10.93;;;9.20;;
53875;SDS011;39789;53.216;5.624;2023-04-07T11:31:26;11.32;;;9.60;;
53875;SDS011;39789;53.216;5.624;2023-04-07T11:33:54;10.18;;;8.77;;
53875;SDS011;39789;53.216;5.624;2023-04-07T11:36:39;10.95;;;9.32;;
53875;SDS011;39789;53.216;5.624;2023-04-07T11:39:08;11.63;;;10.27;;
53875;SDS011;39789;53.216;5.624;2023-04-07T11:41:44;11.95;;;9.73;;
53875;SDS011;39789;53.216;5.624;2023-04-07T11:44:12;12.52;;;9.68;;
53875;SDS011;39789;53.216;5.624;2023-04-07T11:46:51;12.52;;;10.05;;
53875;SDS011;39789;53.216;5.624;2023-04-07T11:49:21;12.23;;;10.35;;
53875;SDS011;39789;53.216;5.624;2023-04-07T11:51:59;11.80;;;9.40;;
53875;SDS011;39789;53.216;5.624;2023-04-07T11:54:47;12.10;;;10.48;;
53875;SDS011;39789;53.216;5.624;2023-04-07T11:57:26;12.13;;;10.32;;
53875;SDS011;39789;53.216;5.624;2023-04-07T12:00:09;11.07;;;9.32;;
53875;SDS011;39789;53.216;5.624;2023-04-07T12:02:36;11.63;;;9.70;;
53875;SDS011;39789;53.216;5.624;2023-04-07T12:05:02;12.38;;;9.48;;
53875;SDS011;39789;53.216;5.624;2023-04-07T12:07:29;10.60;;;9.50;;
53875;SDS011;39789;53.216;5.624;2023-04-07T12:09:55;10.68;;;9.07;;
53875;SDS011;39789;53.216;5.624;2023-04-07T12:12:28;10.90;;;8.98;;
53875;SDS011;39789;53.216;5.624;2023-04-07T12:14:57;11.20;;;8.88;;
53875;SDS011;39789;53.216;5.624;2023-04-07T12:17:29;13.55;;;9.05;;
53875;SDS011;39789;53.216;5.624;2023-04-07T12:19:57;9.93;;;8.20;;
53875;SDS011;39789;53.216;5.624;2023-04-07T12:22:23;9.75;;;7.15;;
53875;SDS011;39789;53.216;5.624;2023-04-07T12:24:49;10.20;;;7.38;;
53875;SDS011;39789;53.216;5.624;2023-04-07T12:27:14;7.85;;;6.53;;
53875;SDS011;39789;53.216;5.624;2023-04-07T12:29:40;6.60;;;5.82;;
53875;SDS011;39789;53.216;5.624;2023-04-07T12:32:05;7.40;;;5.95;;
53875;SDS011;39789;53.216;5.624;2023-04-07T12:34:31;6.97;;;5.95;;
53875;SDS011;39789;53.216;5.624;2023-04-07T12:37:01;7.20;;;6.25;;
53875;SDS011;39789;53.216;5.624;2023-04-07T12:39:27;7.10;;;5.45;;
53875;SDS011;39789;53.216;5.624;2023-04-07T12:41:54;7.25;;;6.18;;
53875;SDS011;39789;53.216;5.624;2023-04-07T12:44:19;7.88;;;6.43;;
53875;SDS011;39789;53.216;5.624;2023-04-07T12:46:45;7.47;;;6.45;;
53875;SDS011;39789;53.216;5.624;2023-04-07T12:49:10;7.18;;;6.05;;
53875;SDS011;39789;53.216;5.624;2023-04-07T12:51:36;7.68;;;6.22;;
53875;SDS011;39789;53.216;5.624;2023-04-07T12:54:11;7.78;;;6.35;;
53875;SDS011;39789;53.216;5.624;2023-04-07T12:56:37;8.48;;;6.65;;
53875;SDS011;39789;53.216;5.624;2023-04-07T12:59:04;7.97;;;6.88;;
53875;SDS011;39789;53.216;5.624;2023-04-07T13:01:30;11.15;;;6.60;;
53875;SDS011;39789;53.216;5.624;2023-04-07T13:03:57;9.27;;;6.68;;
53875;SDS011;39789;53.216;5.624;2023-04-07T13:06:23;7.43;;;6.45;;
53875;SDS011;39789;53.216;5.624;2023-04-07T13:08:52;8.25;;;7.32;;
53875;SDS011;39789;53.216;5.624;2023-04-07T13:11:18;8.25;;;7.20;;
53875;SDS011;39789;53.216;5.624;2023-04-07T13:13:45;8.20;;;7.15;;
53875;SDS011;39789;53.216;5.624;2023-04-07T13:16:12;11.10;;;7.85;;
53875;SDS011;39789;53.216;5.624;2023-04-07T13:18:37;9.10;;;7.75;;
53875;SDS011;39789;53.216;5.624;2023-04-07T13:21:03;11.55;;;7.63;;
53875;SDS011;39789;53.216;5.624;2023-04-07T13:23:29;10.65;;;7.65;;
53875;SDS011;39789;53.216;5.624;2023-04-07T13:25:55;10.68;;;8.85;;
53875;SDS011;39789;53.216;5.624;2023-04-07T13:28:23;9.63;;;7.75;;
53875;SDS011;39789;53.216;5.624;2023-04-07T13:30:48;9.45;;;7.78;;
53875;SDS011;39789;53.216;5.624;2023-04-07T13:33:14;8.77;;;7.70;;
53875;SDS011;39789;53.216;5.624;2023-04-07T13:35:39;10.00;;;8.00;;
53875;SDS011;39789;53.216;5.624;2023-04-07T13:38:05;9.18;;;7.55;;
53875;SDS011;39789;53.216;5.624;2023-04-07T13:40:31;7.88;;;6.82;;
53875;SDS011;39789;53.216;5.624;2023-04-07T13:42:56;7.97;;;6.72;;
53875;SDS011;39789;53.216;5.624;2023-04-07T13:45:22;8.18;;;6.53;;
53875;SDS011;39789;53.216;5.624;2023-04-07T13:47:47;7.75;;;6.85;;
53875;SDS011;39789;53.216;5.624;2023-04-07T13:50:13;7.97;;;6.57;;
53875;SDS011;39789;53.216;5.624;2023-04-07T13:52:39;8.52;;;6.40;;
53875;SDS011;39789;53.216;5.624;2023-04-07T13:55:06;8.07;;;6.65;;
53875;SDS011;39789;53.216;5.624;2023-04-07T13:57:32;9.50;;;6.80;;
53875;SDS011;39789;53.216;5.624;2023-04-07T13:59:58;8.75;;;7.35;;
53875;SDS011;39789;53.216;5.624;2023-04-07T14:02:25;8.45;;;7.20;;
53875;SDS011;39789;53.216;5.624;2023-04-07T14:04:54;8.38;;;6.43;;
53875;SDS011;39789;53.216;5.624;2023-04-07T14:07:21;8.07;;;6.72;;
53875;SDS011;39789;53.216;5.624;2023-04-07T14:09:47;7.72;;;6.18;;
53875;SDS011;39789;53.216;5.624;2023-04-07T14:12:12;7.13;;;5.95;;
53875;SDS011;39789;53.216;5.624;2023-04-07T14:14:38;7.38;;;6.30;;
53875;SDS011;39789;53.216;5.624;2023-04-07T14:17:04;8.25;;;6.80;;
53875;SDS011;39789;53.216;5.624;2023-04-07T14:19:30;10.10;;;7.03;;
53875;SDS011;39789;53.216;5.624;2023-04-07T14:21:57;7.85;;;6.93;;
53875;SDS011;39789;53.216;5.624;2023-04-07T14:24:23;8.52;;;7.13;;
53875;SDS011;39789;53.216;5.624;2023-04-07T14:26:48;9.82;;;7.97;;
53875;SDS011;39789;53.216;5.624;2023-04-07T14:29:15;8.82;;;6.88;;
53875;SDS011;39789;53.216;5.624;2023-04-07T14:31:41;8.02;;;6.32;;
53875;SDS011;39789;53.216;5.624;2023-04-07T14:34:06;7.85;;;6.68;;
53875;SDS011;39789;53.216;5.624;2023-04-07T14:36:32;8.63;;;7.05;;
53875;SDS011;39789;53.216;5.624;2023-04-07T14:38:58;7.70;;;6.75;;
53875;SDS011;39789;53.216;5.624;2023-04-07T14:41:25;8.38;;;6.82;;
53875;SDS011;39789;53.216;5.624;2023-04-07T14:43:51;7.63;;;6.28;;
53875;SDS011;39789;53.216;5.624;2023-04-07T14:46:20;7.80;;;6.60;;
53875;SDS011;39789;53.216;5.624;2023-04-07T14:48:47;7.85;;;6.20;;
53875;SDS011;39789;53.216;5.624;2023-04-07T14:51:12;7.35;;;6.60;;